Terminal Aerodrome Forecast
Issued by NWS Charleston, WV

Current Version | Previous Version | Graphics & Text | Print | Product List | Glossary On
Versions: 1 2 3 4 5 6 7 8 9 10 11 12 13 14 15 16 17 18 19 20 21 22 23 24
343
FTUS41 KRLX 260246 AAA
TAFCRW
TAF AMD
KCRW 260246Z 2603/2624 22004KT P6SM VCTS SCT050CB
     FM260500 22003KT P6SM SCT050
     FM260900 00000KT P6SM BKN040
     FM261800 00000KT 6SM SHRA VCTS OVC070CB=

USA.gov is the U.S. government's official web portal to all federal, state and local government web resources and services.